sensor_id;sensor_type;location;lat;lon;timestamp;temperature;humidity
69776;DHT22;57049;51.450;-2.516;2022-10-16T00:00:41;11.83;82.32
69776;DHT22;57049;51.450;-2.516;2022-10-16T00:03:08;11.70;82.83
69776;DHT22;57049;51.450;-2.516;2022-10-16T00:05:38;11.69;83.05
69776;DHT22;57049;51.450;-2.516;2022-10-16T00:08:05;11.66;82.97
69776;DHT22;57049;51.450;-2.516;2022-10-16T00:10:30;11.63;83.11
69776;DHT22;57049;51.450;-2.516;2022-10-16T00:12:56;11.62;83.25
69776;DHT22;57049;51.450;-2.516;2022-10-16T00:15:21;11.53;83.63
69776;DHT22;57049;51.450;-2.516;2022-10-16T00:17:47;11.47;83.64
69776;DHT22;57049;51.450;-2.516;2022-10-16T00:20:12;11.42;83.99
69776;DHT22;57049;51.450;-2.516;2022-10-16T00:22:38;11.33;84.68
69776;DHT22;57049;51.450;-2.516;2022-10-16T00:25:03;11.33;85.06
69776;DHT22;57049;51.450;-2.516;2022-10-16T00:27:29;11.26;84.98
69776;DHT22;57049;51.450;-2.516;2022-10-16T00:29:54;11.23;85.19
69776;DHT22;57049;51.450;-2.516;2022-10-16T00:32:20;11.20;85.44
69776;DHT22;57049;51.450;-2.516;2022-10-16T00:34:46;11.27;85.16
69776;DHT22;57049;51.450;-2.516;2022-10-16T00:37:12;11.35;84.92
69776;DHT22;57049;51.450;-2.516;2022-10-16T00:39:38;11.32;85.12
69776;DHT22;57049;51.450;-2.516;2022-10-16T00:42:03;11.27;85.12
69776;DHT22;57049;51.450;-2.516;2022-10-16T00:44:49;11.18;85.21
69776;DHT22;57049;51.450;-2.516;2022-10-16T00:47:26;11.22;84.88
69776;DHT22;57049;51.450;-2.516;2022-10-16T00:49:56;11.32;84.36
69776;DHT22;57049;51.450;-2.516;2022-10-16T00:52:23;11.32;84.15
69776;DHT22;57049;51.450;-2.516;2022-10-16T00:54:50;11.29;83.90
69776;DHT22;57049;51.450;-2.516;2022-10-16T00:57:16;11.30;83.83
69776;DHT22;57049;51.450;-2.516;2022-10-16T00:59:42;11.29;83.64
69776;DHT22;57049;51.450;-2.516;2022-10-16T01:02:11;11.25;83.68
69776;DHT22;57049;51.450;-2.516;2022-10-16T01:04:39;11.23;83.48
69776;DHT22;57049;51.450;-2.516;2022-10-16T01:07:37;11.35;82.43
69776;DHT22;57049;51.450;-2.516;2022-10-16T01:12:41;11.32;82.49
69776;DHT22;57049;51.450;-2.516;2022-10-16T01:18:07;11.19;82.48
69776;DHT22;57049;51.450;-2.516;2022-10-16T01:20:38;11.15;82.13
69776;DHT22;57049;51.450;-2.516;2022-10-16T01:31:08;11.09;81.89
69776;DHT22;57049;51.450;-2.516;2022-10-16T01:33:42;10.99;82.30
69776;DHT22;57049;51.450;-2.516;2022-10-16T01:36:14;10.95;82.84
69776;DHT22;57049;51.450;-2.516;2022-10-16T01:38:43;11.02;82.77
69776;DHT22;57049;51.450;-2.516;2022-10-16T01:41:18;11.05;82.81
69776;DHT22;57049;51.450;-2.516;2022-10-16T01:44:00;11.01;82.59
69776;DHT22;57049;51.450;-2.516;2022-10-16T01:46:27;11.01;82.82
69776;DHT22;57049;51.450;-2.516;2022-10-16T01:48:53;10.95;83.11
69776;DHT22;57049;51.450;-2.516;2022-10-16T01:51:20;10.96;83.19
69776;DHT22;57049;51.450;-2.516;2022-10-16T01:53:50;10.89;83.34
69776;DHT22;57049;51.450;-2.516;2022-10-16T01:56:17;10.89;83.27
69776;DHT22;57049;51.450;-2.516;2022-10-16T01:58:49;10.91;83.14
69776;DHT22;57049;51.450;-2.516;2022-10-16T02:01:18;10.86;83.41
69776;DHT22;57049;51.450;-2.516;2022-10-16T02:03:45;10.89;83.10
69776;DHT22;57049;51.450;-2.516;2022-10-16T02:06:14;10.86;83.22
69776;DHT22;57049;51.450;-2.516;2022-10-16T02:08:40;10.84;83.25
69776;DHT22;57049;51.450;-2.516;2022-10-16T02:11:09;10.84;83.44
69776;DHT22;57049;51.450;-2.516;2022-10-16T02:13:48;10.86;83.52
69776;DHT22;57049;51.450;-2.516;2022-10-16T02:16:15;10.82;83.63
69776;DHT22;57049;51.450;-2.516;2022-10-16T02:18:42;10.78;83.97
69776;DHT22;57049;51.450;-2.516;2022-10-16T02:21:30;10.78;83.93
69776;DHT22;57049;51.450;-2.516;2022-10-16T02:24:10;10.72;84.24
69776;DHT22;57049;51.450;-2.516;2022-10-16T02:26:55;10.72;84.33
69776;DHT22;57049;51.450;-2.516;2022-10-16T02:29:25;10.71;84.35
69776;DHT22;57049;51.450;-2.516;2022-10-16T02:31:55;10.71;84.68
69776;DHT22;57049;51.450;-2.516;2022-10-16T02:34:24;10.67;84.73
69776;DHT22;57049;51.450;-2.516;2022-10-16T02:36:51;10.65;84.88
69776;DHT22;57049;51.450;-2.516;2022-10-16T02:39:19;10.67;84.92
69776;DHT22;57049;51.450;-2.516;2022-10-16T02:41:45;10.55;85.10
69776;DHT22;57049;51.450;-2.516;2022-10-16T02:44:10;10.55;85.33
69776;DHT22;57049;51.450;-2.516;2022-10-16T02:46:36;10.61;85.10
69776;DHT22;57049;51.450;-2.516;2022-10-16T02:49:01;10.57;85.37
69776;DHT22;57049;51.450;-2.516;2022-10-16T02:51:27;10.55;85.43
69776;DHT22;57049;51.450;-2.516;2022-10-16T02:53:52;10.55;85.30
69776;DHT22;57049;51.450;-2.516;2022-10-16T02:56:18;10.43;85.74
69776;DHT22;57049;51.450;-2.516;2022-10-16T02:58:43;10.47;85.45
69776;DHT22;57049;51.450;-2.516;2022-10-16T03:01:09;10.44;85.53
69776;DHT22;57049;51.450;-2.516;2022-10-16T03:03:34;10.41;85.61
69776;DHT22;57049;51.450;-2.516;2022-10-16T03:06:00;10.36;85.73
69776;DHT22;57049;51.450;-2.516;2022-10-16T03:08:25;10.40;85.60
69776;DHT22;57049;51.450;-2.516;2022-10-16T03:10:51;10.44;85.43
69776;DHT22;57049;51.450;-2.516;2022-10-16T03:13:17;10.47;85.38
69776;DHT22;57049;51.450;-2.516;2022-10-16T03:15:43;10.47;85.05
69776;DHT22;57049;51.450;-2.516;2022-10-16T03:18:09;10.43;85.33
69776;DHT22;57049;51.450;-2.516;2022-10-16T03:20:34;10.34;85.73
69776;DHT22;57049;51.450;-2.516;2022-10-16T03:23:00;10.41;85.48
69776;DHT22;57049;51.450;-2.516;2022-10-16T03:25:25;10.34;85.51
69776;DHT22;57049;51.450;-2.516;2022-10-16T03:27:51;10.29;85.38
69776;DHT22;57049;51.450;-2.516;2022-10-16T03:30:17;10.34;85.57
69776;DHT22;57049;51.450;-2.516;2022-10-16T03:32:43;10.29;85.70
69776;DHT22;57049;51.450;-2.516;2022-10-16T03:35:09;10.27;85.73
69776;DHT22;57049;51.450;-2.516;2022-10-16T03:37:35;10.34;85.72
69776;DHT22;57049;51.450;-2.516;2022-10-16T03:40:01;10.51;85.37
69776;DHT22;57049;51.450;-2.516;2022-10-16T03:42:27;10.64;85.62
69776;DHT22;57049;51.450;-2.516;2022-10-16T03:44:53;10.65;86.22
69776;DHT22;57049;51.450;-2.516;2022-10-16T03:47:18;10.60;87.27
69776;DHT22;57049;51.450;-2.516;2022-10-16T03:49:47;10.55;87.80
69776;DHT22;57049;51.450;-2.516;2022-10-16T03:52:12;10.48;88.54
69776;DHT22;57049;51.450;-2.516;2022-10-16T03:54:38;10.47;88.90
69776;DHT22;57049;51.450;-2.516;2022-10-16T03:57:03;10.48;89.44
69776;DHT22;57049;51.450;-2.516;2022-10-16T03:59:29;10.45;89.95
69776;DHT22;57049;51.450;-2.516;2022-10-16T04:01:54;10.40;90.47
69776;DHT22;57049;51.450;-2.516;2022-10-16T04:04:20;10.31;91.15
69776;DHT22;57049;51.450;-2.516;2022-10-16T04:06:45;10.29;90.91
69776;DHT22;57049;51.450;-2.516;2022-10-16T04:09:11;10.16;91.16
69776;DHT22;57049;51.450;-2.516;2022-10-16T04:11:36;10.17;90.89
69776;DHT22;57049;51.450;-2.516;2022-10-16T04:14:02;10.09;91.20
69776;DHT22;57049;51.450;-2.516;2022-10-16T04:16:27;10.09;91.12
69776;DHT22;57049;51.450;-2.516;2022-10-16T04:18:53;9.99;91.56
69776;DHT22;57049;51.450;-2.516;2022-10-16T04:21:18;9.90;91.83
69776;DHT22;57049;51.450;-2.516;2022-10-16T04:23:44;9.89;91.70
69776;DHT22;57049;51.450;-2.516;2022-10-16T04:26:09;9.80;91.86
69776;DHT22;57049;51.450;-2.516;2022-10-16T04:28:35;9.72;92.02
69776;DHT22;57049;51.450;-2.516;2022-10-16T04:31:03;9.62;92.07
69776;DHT22;57049;51.450;-2.516;2022-10-16T04:33:29;9.52;92.20
69776;DHT22;57049;51.450;-2.516;2022-10-16T04:35:59;9.56;91.81
69776;DHT22;57049;51.450;-2.516;2022-10-16T04:38:25;9.56;91.33
69776;DHT22;57049;51.450;-2.516;2022-10-16T04:40:51;9.49;91.37
69776;DHT22;57049;51.450;-2.516;2022-10-16T04:43:16;9.43;91.45
69776;DHT22;57049;51.450;-2.516;2022-10-16T04:45:42;9.38;91.23
69776;DHT22;57049;51.450;-2.516;2022-10-16T04:48:07;9.34;91.38
69776;DHT22;57049;51.450;-2.516;2022-10-16T04:50:33;9.32;91.43
69776;DHT22;57049;51.450;-2.516;2022-10-16T04:52:58;9.43;91.65
69776;DHT22;57049;51.450;-2.516;2022-10-16T04:55:24;9.52;91.03
69776;DHT22;57049;51.450;-2.516;2022-10-16T04:57:49;9.56;90.85
69776;DHT22;57049;51.450;-2.516;2022-10-16T05:00:15;9.63;90.64
69776;DHT22;57049;51.450;-2.516;2022-10-16T05:02:41;9.68;90.86
69776;DHT22;57049;51.450;-2.516;2022-10-16T05:05:06;9.70;90.72
69776;DHT22;57049;51.450;-2.516;2022-10-16T05:07:35;9.75;90.51
69776;DHT22;57049;51.450;-2.516;2022-10-16T05:10:00;9.75;90.67
69776;DHT22;57049;51.450;-2.516;2022-10-16T05:12:28;9.72;90.54
69776;DHT22;57049;51.450;-2.516;2022-10-16T05:14:54;9.70;90.32
69776;DHT22;57049;51.450;-2.516;2022-10-16T05:17:26;9.69;90.89
69776;DHT22;57049;51.450;-2.516;2022-10-16T05:19:52;9.70;90.45
69776;DHT22;57049;51.450;-2.516;2022-10-16T05:22:18;9.72;90.35
69776;DHT22;57049;51.450;-2.516;2022-10-16T05:24:43;9.70;90.85
69776;DHT22;57049;51.450;-2.516;2022-10-16T05:27:10;9.70;91.00
69776;DHT22;57049;51.450;-2.516;2022-10-16T05:29:36;9.72;91.21
69776;DHT22;57049;51.450;-2.516;2022-10-16T05:32:02;9.82;90.58
69776;DHT22;57049;51.450;-2.516;2022-10-16T05:34:28;9.83;90.52
69776;DHT22;57049;51.450;-2.516;2022-10-16T05:36:54;9.76;90.41
69776;DHT22;57049;51.450;-2.516;2022-10-16T05:39:19;9.70;90.73
69776;DHT22;57049;51.450;-2.516;2022-10-16T05:41:45;9.66;91.05
69776;DHT22;57049;51.450;-2.516;2022-10-16T05:44:11;9.58;91.29
69776;DHT22;57049;51.450;-2.516;2022-10-16T05:46:36;9.52;91.31
69776;DHT22;57049;51.450;-2.516;2022-10-16T05:49:02;9.48;91.16
69776;DHT22;57049;51.450;-2.516;2022-10-16T05:51:28;9.36;91.47
69776;DHT22;57049;51.450;-2.516;2022-10-16T05:53:53;9.28;91.72
69776;DHT22;57049;51.450;-2.516;2022-10-16T05:56:19;9.21;91.85
69776;DHT22;57049;51.450;-2.516;2022-10-16T05:58:45;9.17;92.18
69776;DHT22;57049;51.450;-2.516;2022-10-16T06:03:38;9.04;92.61
69776;DHT22;57049;51.450;-2.516;2022-10-16T06:06:17;8.94;92.61
69776;DHT22;57049;51.450;-2.516;2022-10-16T06:08:43;8.88;92.94
69776;DHT22;57049;51.450;-2.516;2022-10-16T06:11:15;8.84;93.26
69776;DHT22;57049;51.450;-2.516;2022-10-16T06:13:41;8.91;93.52
69776;DHT22;57049;51.450;-2.516;2022-10-16T06:16:09;8.90;93.32
69776;DHT22;57049;51.450;-2.516;2022-10-16T06:18:35;8.87;93.62
69776;DHT22;57049;51.450;-2.516;2022-10-16T06:21:07;8.84;93.27
69776;DHT22;57049;51.450;-2.516;2022-10-16T06:23:33;8.77;93.46
69776;DHT22;57049;51.450;-2.516;2022-10-16T06:26:07;8.78;93.71
69776;DHT22;57049;51.450;-2.516;2022-10-16T06:28:33;8.77;93.79
69776;DHT22;57049;51.450;-2.516;2022-10-16T06:31:00;8.76;93.87
69776;DHT22;57049;51.450;-2.516;2022-10-16T06:33:25;8.70;93.98
69776;DHT22;57049;51.450;-2.516;2022-10-16T06:35:51;8.68;94.13
69776;DHT22;57049;51.450;-2.516;2022-10-16T06:38:16;8.63;94.16
69776;DHT22;57049;51.450;-2.516;2022-10-16T06:40:42;8.59;94.13
69776;DHT22;57049;51.450;-2.516;2022-10-16T06:43:07;8.52;94.45
69776;DHT22;57049;51.450;-2.516;2022-10-16T06:45:33;8.47;94.81
69776;DHT22;57049;51.450;-2.516;2022-10-16T06:47:58;8.45;94.70
69776;DHT22;57049;51.450;-2.516;2022-10-16T06:50:24;8.36;94.76
69776;DHT22;57049;51.450;-2.516;2022-10-16T06:52:59;8.29;95.35
69776;DHT22;57049;51.450;-2.516;2022-10-16T06:55:24;8.22;95.28
69776;DHT22;57049;51.450;-2.516;2022-10-16T06:57:49;8.17;95.36
69776;DHT22;57049;51.450;-2.516;2022-10-16T07:00:15;8.12;95.31
69776;DHT22;57049;51.450;-2.516;2022-10-16T07:02:41;8.06;95.53
69776;DHT22;57049;51.450;-2.516;2022-10-16T07:05:07;8.05;95.82
69776;DHT22;57049;51.450;-2.516;2022-10-16T07:07:32;7.99;95.89
69776;DHT22;57049;51.450;-2.516;2022-10-16T07:09:58;8.06;96.08
69776;DHT22;57049;51.450;-2.516;2022-10-16T07:12:23;8.24;95.81
69776;DHT22;57049;51.450;-2.516;2022-10-16T07:14:51;8.32;95.70
69776;DHT22;57049;51.450;-2.516;2022-10-16T07:17:17;8.32;95.33
69776;DHT22;57049;51.450;-2.516;2022-10-16T07:19:44;8.42;95.18
69776;DHT22;57049;51.450;-2.516;2022-10-16T07:22:09;8.43;94.97
69776;DHT22;57049;51.450;-2.516;2022-10-16T07:24:35;8.46;94.95
69776;DHT22;57049;51.450;-2.516;2022-10-16T07:27:01;8.45;94.84
69776;DHT22;57049;51.450;-2.516;2022-10-16T07:29:26;8.49;94.83
69776;DHT22;57049;51.450;-2.516;2022-10-16T07:31:52;8.52;94.83
69776;DHT22;57049;51.450;-2.516;2022-10-16T07:34:18;8.61;94.67
69776;DHT22;57049;51.450;-2.516;2022-10-16T07:36:50;8.66;94.46
69776;DHT22;57049;51.450;-2.516;2022-10-16T07:39:16;8.66;94.56
69776;DHT22;57049;51.450;-2.516;2022-10-16T07:41:42;8.77;94.54
69776;DHT22;57049;51.450;-2.516;2022-10-16T07:44:07;8.83;94.24
69776;DHT22;57049;51.450;-2.516;2022-10-16T07:46:33;8.87;94.16
69776;DHT22;57049;51.450;-2.516;2022-10-16T07:48:59;8.98;93.90
69776;DHT22;57049;51.450;-2.516;2022-10-16T07:51:25;9.03;93.83
69776;DHT22;57049;51.450;-2.516;2022-10-16T07:53:52;9.08;93.82
69776;DHT22;57049;51.450;-2.516;2022-10-16T07:56:18;9.19;93.43
69776;DHT22;57049;51.450;-2.516;2022-10-16T07:58:45;9.31;93.20
69776;DHT22;57049;51.450;-2.516;2022-10-16T08:01:12;9.38;92.93
69776;DHT22;57049;51.450;-2.516;2022-10-16T08:03:49;9.46;92.43
69776;DHT22;57049;51.450;-2.516;2022-10-16T08:06:16;9.55;92.13
69776;DHT22;57049;51.450;-2.516;2022-10-16T08:08:42;9.60;92.17
69776;DHT22;57049;51.450;-2.516;2022-10-16T08:11:08;9.62;91.96
69776;DHT22;57049;51.450;-2.516;2022-10-16T08:13:33;9.73;91.96
69776;DHT22;57049;51.450;-2.516;2022-10-16T08:15:59;9.80;91.28
69776;DHT22;57049;51.450;-2.516;2022-10-16T08:18:25;9.92;91.35
69776;DHT22;57049;51.450;-2.516;2022-10-16T08:20:58;10.03;90.69
69776;DHT22;57049;51.450;-2.516;2022-10-16T08:23:26;10.06;90.73
69776;DHT22;57049;51.450;-2.516;2022-10-16T08:25:53;10.13;90.60
69776;DHT22;57049;51.450;-2.516;2022-10-16T08:28:19;10.21;90.17
69776;DHT22;57049;51.450;-2.516;2022-10-16T08:30:45;10.34;89.32
69776;DHT22;57049;51.450;-2.516;2022-10-16T08:33:11;10.37;89.68
69776;DHT22;57049;51.450;-2.516;2022-10-16T08:35:36;10.47;89.39
69776;DHT22;57049;51.450;-2.516;2022-10-16T08:38:06;10.52;89.63
69776;DHT22;57049;51.450;-2.516;2022-10-16T08:40:34;10.58;89.73
69776;DHT22;57049;51.450;-2.516;2022-10-16T08:48:54;10.94;89.13
69776;DHT22;57049;51.450;-2.516;2022-10-16T08:51:29;11.01;88.76
69776;DHT22;57049;51.450;-2.516;2022-10-16T08:53:59;11.02;88.92
69776;DHT22;57049;51.450;-2.516;2022-10-16T08:56:26;11.08;88.58
69776;DHT22;57049;51.450;-2.516;2022-10-16T08:58:53;11.03;88.83
69776;DHT22;57049;51.450;-2.516;2022-10-16T09:01:22;11.12;88.93
69776;DHT22;57049;51.450;-2.516;2022-10-16T09:06:59;11.32;88.28
69776;DHT22;57049;51.450;-2.516;2022-10-16T09:12:27;11.47;88.01
69776;DHT22;57049;51.450;-2.516;2022-10-16T09:18:07;11.57;87.86
69776;DHT22;57049;51.450;-2.516;2022-10-16T09:25:31;11.83;87.06
69776;DHT22;57049;51.450;-2.516;2022-10-16T09:27:57;11.87;86.25
69776;DHT22;57049;51.450;-2.516;2022-10-16T09:30:27;11.93;86.45
69776;DHT22;57049;51.450;-2.516;2022-10-16T09:32:54;12.04;86.31
69776;DHT22;57049;51.450;-2.516;2022-10-16T09:35:22;12.15;85.94
69776;DHT22;57049;51.450;-2.516;2022-10-16T09:37:51;12.27;85.82
69776;DHT22;57049;51.450;-2.516;2022-10-16T09:40:26;12.49;84.61
69776;DHT22;57049;51.450;-2.516;2022-10-16T09:43:16;12.80;84.08
69776;DHT22;57049;51.450;-2.516;2022-10-16T09:46:36;13.04;82.87
69776;DHT22;57049;51.450;-2.516;2022-10-16T09:48:49;13.31;82.91
69776;DHT22;57049;51.450;-2.516;2022-10-16T09:51:21;13.53;82.03
69776;DHT22;57049;51.450;-2.516;2022-10-16T09:53:47;13.70;81.85
69776;DHT22;57049;51.450;-2.516;2022-10-16T09:56:29;13.83;80.73
69776;DHT22;57049;51.450;-2.516;2022-10-16T09:58:57;13.92;81.07
69776;DHT22;57049;51.450;-2.516;2022-10-16T10:01:39;14.02;79.79
69776;DHT22;57049;51.450;-2.516;2022-10-16T10:04:05;13.98;78.89
69776;DHT22;57049;51.450;-2.516;2022-10-16T10:06:36;13.94;79.85
69776;DHT22;57049;51.450;-2.516;2022-10-16T10:09:21;13.82;80.34
69776;DHT22;57049;51.450;-2.516;2022-10-16T10:11:54;13.85;80.37
69776;DHT22;57049;51.450;-2.516;2022-10-16T10:14:28;13.91;80.83
69776;DHT22;57049;51.450;-2.516;2022-10-16T10:17:09;13.82;79.70
69776;DHT22;57049;51.450;-2.516;2022-10-16T10:22:41;13.86;79.64
69776;DHT22;57049;51.450;-2.516;2022-10-16T10:33:46;14.22;77.07
69776;DHT22;57049;51.450;-2.516;2022-10-16T10:36:38;14.26;77.89
69776;DHT22;57049;51.450;-2.516;2022-10-16T10:39:25;14.16;78.03
69776;DHT22;57049;51.450;-2.516;2022-10-16T10:42:14;14.22;77.88
69776;DHT22;57049;51.450;-2.516;2022-10-16T10:47:48;14.29;76.25
69776;DHT22;57049;51.450;-2.516;2022-10-16T10:50:27;14.22;75.41
69776;DHT22;57049;51.450;-2.516;2022-10-16T10:56:16;14.42;74.86
69776;DHT22;57049;51.450;-2.516;2022-10-16T11:01:56;14.55;74.19
69776;DHT22;57049;51.450;-2.516;2022-10-16T11:04:37;14.67;73.58
69776;DHT22;57049;51.450;-2.516;2022-10-16T11:07:38;14.66;73.20
69776;DHT22;57049;51.450;-2.516;2022-10-16T11:13:21;14.87;70.55
69776;DHT22;57049;51.450;-2.516;2022-10-16T11:15:52;14.77;71.33
69776;DHT22;57049;51.450;-2.516;2022-10-16T11:18:22;14.77;71.87
69776;DHT22;57049;51.450;-2.516;2022-10-16T11:20:56;14.69;71.75
69776;DHT22;57049;51.450;-2.516;2022-10-16T11:23:30;14.64;72.39
69776;DHT22;57049;51.450;-2.516;2022-10-16T11:26:00;14.84;71.33
69776;DHT22;57049;51.450;-2.516;2022-10-16T11:28:37;15.01;69.62
69776;DHT22;57049;51.450;-2.516;2022-10-16T11:31:37;15.32;67.50
69776;DHT22;57049;51.450;-2.516;2022-10-16T11:37:18;15.38;66.87
69776;DHT22;57049;51.450;-2.516;2022-10-16T11:39:45;15.38;67.82
69776;DHT22;57049;51.450;-2.516;2022-10-16T11:50:26;15.39;68.53
69776;DHT22;57049;51.450;-2.516;2022-10-16T11:55:53;15.79;67.39
69776;DHT22;57049;51.450;-2.516;2022-10-16T11:58:35;16.10;68.29
69776;DHT22;57049;51.450;-2.516;2022-10-16T12:01:19;16.18;65.26
69776;DHT22;57049;51.450;-2.516;2022-10-16T12:06:44;16.33;65.04
69776;DHT22;57049;51.450;-2.516;2022-10-16T12:09:22;16.46;65.18
69776;DHT22;57049;51.450;-2.516;2022-10-16T12:11:48;16.41;65.08
69776;DHT22;57049;51.450;-2.516;2022-10-16T12:17:00;16.36;65.14
69776;DHT22;57049;51.450;-2.516;2022-10-16T12:19:28;16.26;65.42
69776;DHT22;57049;51.450;-2.516;2022-10-16T12:22:01;16.17;65.52
69776;DHT22;57049;51.450;-2.516;2022-10-16T12:24:42;16.13;66.61
69776;DHT22;57049;51.450;-2.516;2022-10-16T12:27:43;16.07;66.30
69776;DHT22;57049;51.450;-2.516;2022-10-16T12:30:20;16.27;65.35
69776;DHT22;57049;51.450;-2.516;2022-10-16T12:32:54;16.28;65.12
69776;DHT22;57049;51.450;-2.516;2022-10-16T12:35:23;16.31;65.82
69776;DHT22;57049;51.450;-2.516;2022-10-16T12:37:50;16.31;65.71
69776;DHT22;57049;51.450;-2.516;2022-10-16T12:40:26;16.37;66.52
69776;DHT22;57049;51.450;-2.516;2022-10-16T12:42:52;16.38;66.38
69776;DHT22;57049;51.450;-2.516;2022-10-16T12:45:31;16.16;67.48
69776;DHT22;57049;51.450;-2.516;2022-10-16T12:48:02;16.20;67.02
69776;DHT22;57049;51.450;-2.516;2022-10-16T12:50:36;16.20;67.74
69776;DHT22;57049;51.450;-2.516;2022-10-16T12:53:03;16.20;68.52
69776;DHT22;57049;51.450;-2.516;2022-10-16T12:55:43;16.27;68.05
69776;DHT22;57049;51.450;-2.516;2022-10-16T13:06:55;17.38;66.77
69776;DHT22;57049;51.450;-2.516;2022-10-16T13:14:45;17.15;64.85
69776;DHT22;57049;51.450;-2.516;2022-10-16T13:26:04;17.35;62.62
69776;DHT22;57049;51.450;-2.516;2022-10-16T13:28:33;17.29;61.50
69776;DHT22;57049;51.450;-2.516;2022-10-16T13:31:01;17.05;61.47
69776;DHT22;57049;51.450;-2.516;2022-10-16T13:35:57;17.12;61.91
69776;DHT22;57049;51.450;-2.516;2022-10-16T13:38:25;17.14;61.85
69776;DHT22;57049;51.450;-2.516;2022-10-16T13:41:15;17.18;62.12
69776;DHT22;57049;51.450;-2.516;2022-10-16T13:43:43;16.99;61.92
69776;DHT22;57049;51.450;-2.516;2022-10-16T13:46:21;16.96;62.65
69776;DHT22;57049;51.450;-2.516;2022-10-16T13:49:02;16.87;63.00
69776;DHT22;57049;51.450;-2.516;2022-10-16T13:51:30;16.81;62.81
69776;DHT22;57049;51.450;-2.516;2022-10-16T13:53:57;16.74;62.83
69776;DHT22;57049;51.450;-2.516;2022-10-16T13:56:25;16.78;64.11
69776;DHT22;57049;51.450;-2.516;2022-10-16T13:59:06;16.85;63.91
69776;DHT22;57049;51.450;-2.516;2022-10-16T14:01:43;16.87;66.03
69776;DHT22;57049;51.450;-2.516;2022-10-16T14:04:11;16.82;65.73
69776;DHT22;57049;51.450;-2.516;2022-10-16T14:06:42;16.67;64.82
69776;DHT22;57049;51.450;-2.516;2022-10-16T14:09:31;16.57;65.60
69776;DHT22;57049;51.450;-2.516;2022-10-16T14:11:58;16.56;65.91
69776;DHT22;57049;51.450;-2.516;2022-10-16T14:14:24;16.63;65.46
69776;DHT22;57049;51.450;-2.516;2022-10-16T14:16:52;16.64;66.05
69776;DHT22;57049;51.450;-2.516;2022-10-16T14:19:27;16.56;66.67
69776;DHT22;57049;51.450;-2.516;2022-10-16T14:21:55;16.51;64.86
69776;DHT22;57049;51.450;-2.516;2022-10-16T14:24:32;16.47;65.46
69776;DHT22;57049;51.450;-2.516;2022-10-16T14:26:58;16.38;64.99
69776;DHT22;57049;51.450;-2.516;2022-10-16T14:29:26;16.41;64.95
69776;DHT22;57049;51.450;-2.516;2022-10-16T14:32:05;16.43;65.38
69776;DHT22;57049;51.450;-2.516;2022-10-16T14:34:36;16.41;64.59
69776;DHT22;57049;51.450;-2.516;2022-10-16T14:37:14;16.46;65.65
69776;DHT22;57049;51.450;-2.516;2022-10-16T14:39:51;16.43;65.75
69776;DHT22;57049;51.450;-2.516;2022-10-16T14:42:19;16.44;65.66
69776;DHT22;57049;51.450;-2.516;2022-10-16T14:44:46;16.40;65.84
69776;DHT22;57049;51.450;-2.516;2022-10-16T14:47:17;16.33;66.73
69776;DHT22;57049;51.450;-2.516;2022-10-16T14:49:47;16.34;66.84
69776;DHT22;57049;51.450;-2.516;2022-10-16T14:52:13;16.26;67.45
69776;DHT22;57049;51.450;-2.516;2022-10-16T14:54:40;16.24;67.60
69776;DHT22;57049;51.450;-2.516;2022-10-16T14:57:16;16.24;68.35
69776;DHT22;57049;51.450;-2.516;2022-10-16T14:59:43;16.23;69.37
69776;DHT22;57049;51.450;-2.516;2022-10-16T15:04:47;16.24;69.95
69776;DHT22;57049;51.450;-2.516;2022-10-16T15:07:13;16.21;69.76
69776;DHT22;57049;51.450;-2.516;2022-10-16T15:09:39;16.12;71.00
69776;DHT22;57049;51.450;-2.516;2022-10-16T15:12:04;16.16;70.01
69776;DHT22;57049;51.450;-2.516;2022-10-16T15:14:30;16.00;70.37
69776;DHT22;57049;51.450;-2.516;2022-10-16T15:16:55;16.06;70.80
69776;DHT22;57049;51.450;-2.516;2022-10-16T15:19:21;15.96;70.84
69776;DHT22;57049;51.450;-2.516;2022-10-16T15:21:47;15.99;70.93
69776;DHT22;57049;51.450;-2.516;2022-10-16T15:24:13;15.79;71.63
69776;DHT22;57049;51.450;-2.516;2022-10-16T15:26:39;15.83;71.94
69776;DHT22;57049;51.450;-2.516;2022-10-16T15:29:05;15.95;71.95
69776;DHT22;57049;51.450;-2.516;2022-10-16T15:31:31;15.96;71.48
69776;DHT22;57049;51.450;-2.516;2022-10-16T15:33:56;15.92;72.02
69776;DHT22;57049;51.450;-2.516;2022-10-16T15:36:31;15.92;72.43
69776;DHT22;57049;51.450;-2.516;2022-10-16T15:38:59;15.85;72.51
69776;DHT22;57049;51.450;-2.516;2022-10-16T15:41:25;15.89;72.40
69776;DHT22;57049;51.450;-2.516;2022-10-16T15:43:51;15.90;72.47
69776;DHT22;57049;51.450;-2.516;2022-10-16T15:46:21;15.87;72.84
69776;DHT22;57049;51.450;-2.516;2022-10-16T15:48:48;15.82;72.81
69776;DHT22;57049;51.450;-2.516;2022-10-16T15:51:14;15.78;73.63
69776;DHT22;57049;51.450;-2.516;2022-10-16T15:53:41;15.79;73.28
69776;DHT22;57049;51.450;-2.516;2022-10-16T15:56:09;15.66;73.81
69776;DHT22;57049;51.450;-2.516;2022-10-16T15:58:39;15.67;73.55
69776;DHT22;57049;51.450;-2.516;2022-10-16T16:01:05;15.63;74.04
69776;DHT22;57049;51.450;-2.516;2022-10-16T16:03:31;15.58;74.21
69776;DHT22;57049;51.450;-2.516;2022-10-16T16:05:58;15.55;74.58
69776;DHT22;57049;51.450;-2.516;2022-10-16T16:08:23;15.48;75.27
69776;DHT22;57049;51.450;-2.516;2022-10-16T16:11:00;15.39;75.39
69776;DHT22;57049;51.450;-2.516;2022-10-16T16:13:26;15.42;75.79
69776;DHT22;57049;51.450;-2.516;2022-10-16T16:15:52;15.41;76.30
69776;DHT22;57049;51.450;-2.516;2022-10-16T16:18:18;15.34;76.87
69776;DHT22;57049;51.450;-2.516;2022-10-16T16:20:43;15.32;77.16
69776;DHT22;57049;51.450;-2.516;2022-10-16T16:23:09;15.30;77.62
69776;DHT22;57049;51.450;-2.516;2022-10-16T16:25:34;15.27;77.65
69776;DHT22;57049;51.450;-2.516;2022-10-16T16:28:00;15.25;78.24
69776;DHT22;57049;51.450;-2.516;2022-10-16T16:30:26;15.25;78.35
69776;DHT22;57049;51.450;-2.516;2022-10-16T16:32:51;15.17;79.10
69776;DHT22;57049;51.450;-2.516;2022-10-16T16:35:16;15.18;79.48
69776;DHT22;57049;51.450;-2.516;2022-10-16T16:37:42;15.17;79.98
69776;DHT22;57049;51.450;-2.516;2022-10-16T16:40:08;15.14;80.37
69776;DHT22;57049;51.450;-2.516;2022-10-16T16:42:34;15.01;80.85
69776;DHT22;57049;51.450;-2.516;2022-10-16T16:44:59;14.98;81.47
69776;DHT22;57049;51.450;-2.516;2022-10-16T16:47:25;14.93;81.88
69776;DHT22;57049;51.450;-2.516;2022-10-16T16:49:50;14.90;82.20
69776;DHT22;57049;51.450;-2.516;2022-10-16T16:52:16;14.84;82.92
69776;DHT22;57049;51.450;-2.516;2022-10-16T16:54:42;14.79;83.57
69776;DHT22;57049;51.450;-2.516;2022-10-16T16:57:09;14.73;84.32
69776;DHT22;57049;51.450;-2.516;2022-10-16T16:59:35;14.63;84.75
69776;DHT22;57049;51.450;-2.516;2022-10-16T17:02:01;14.63;85.38
69776;DHT22;57049;51.450;-2.516;2022-10-16T17:04:26;14.56;86.03
69776;DHT22;57049;51.450;-2.516;2022-10-16T17:06:53;14.50;86.52
69776;DHT22;57049;51.450;-2.516;2022-10-16T17:09:19;14.49;86.86
69776;DHT22;57049;51.450;-2.516;2022-10-16T17:11:45;14.50;87.02
69776;DHT22;57049;51.450;-2.516;2022-10-16T17:14:12;14.49;87.14
69776;DHT22;57049;51.450;-2.516;2022-10-16T17:16:38;14.46;87.48
69776;DHT22;57049;51.450;-2.516;2022-10-16T17:19:09;14.42;87.88